Data for 05/09/2009

Time Sea-Level Adjusted Pressure Absolute Pressure Temperature Relative Humidity Dew Point   
(mb) (inHg) (mb) (inHg) (C) (F) (%) (C) (F)
00:05 1023 30.21 852 25.16 3.6 38.4 71 -1.1 30
00:10 1023 30.21 852 25.16 3.6 38.5 71 -1.1 30
00:15 1023 30.21 852 25.16 3.6 38.5 72 -1 30.2
00:20 1023 30.21 852 25.16 3.4 38.2 72 -1.1 30
00:25 1023 30.21 852 25.16 3.4 38 74 -0.9 30.4
00:30 1023 30.21 852 25.16 3.3 38 74 -1 30.3
00:35 1023 30.21 852 25.16 3.3 37.9 74 -1 30.2
00:40 1023 30.21 852 25.16 3.2 37.8 73 -1.1 30.1
00:45 1023 30.21 852 25.16 3.3 37.9 73 -1.1 30
00:50 1023 30.21 852 25.16 3.3 38 73 -1.1 30
00:55 1023 30.21 852 25.16 3.6 38.4 72 -0.9 30.3
01:00 1023 30.21 852 25.16 3.6 38.5 73 -0.7 30.8
01:05 1023 30.21 852 25.16 3.6 38.5 73 -0.8 30.6
01:10 1023 30.21 852 25.16 3.8 38.8 72 -0.7 30.7
01:15 1023 30.21 852 25.16 3.9 38.9 72 -0.8 30.6
01:20 1023 30.21 852 25.16 3.6 38.6 74 -0.5 31.2
01:25 1023 30.21 852 25.16 3.6 38.4 76 -0.3 31.4
01:30 1023 30.21 852 25.16 3.4 38.2 76 -0.3 31.4
01:35 1023 30.21 852 25.16 3.4 38.1 77 -0.3 31.4
01:40 1023 30.21 852 25.16 3.4 38.2 76 -0.4 31.3
01:45 1023 30.21 852 25.16 3.5 38.3 76 -0.3 31.5
01:50 1023 30.21 852 25.16 3.4 38.1 76 -0.3 31.4
01:55 1023 30.21 852 25.16 3.3 38 77 -0.3 31.5
02:00 1023 30.21 852 25.16 3.2 37.7 79 -0.1 31.9
02:05 1023 30.21 852 25.16 2.8 37.1 80 -0.2 31.6
02:10 1023 30.21 852 25.16 2.7 36.9 81 -0.2 31.6
02:15 1023 30.21 852 25.16 2.7 36.9 81 -0.3 31.4
02:20 1023 30.21 852 25.16 2.7 36.9 81 -0.2 31.6
02:25 1023 30.21 852 25.16 2.6 36.7 82 -0.2 31.7
02:30 1023 30.21 852 25.16 2.6 36.7 81 -0.3 31.5
02:35 1023 30.21 852 25.16 2.6 36.7 81 -0.2 31.6
02:40 1023 30.21 852 25.16 2.8 37.1 76 -0.9 30.4
02:45 1023 30.21 852 25.16 3 37.4 77 -0.7 30.8
02:50 1023 30.21 852 25.16 3.1 37.5 73 -1.2 29.8
02:55 1023 30.21 852 25.16 3.2 37.7 76 -0.7 30.8
03:00 1023 30.21 852 25.16 3.1 37.5 75 -1 30.2
03:05 1023 30.21 852 25.16 3 37.5 76 -0.7 30.7
03:10 1023 30.21 852 25.16 3.1 37.5 74 -1.1 30
03:15 1023 30.21 852 25.16 3.2 37.8 73 -1.1 30
03:20 1023 30.21 852 25.16 3.3 37.9 73 -1 30.2
03:25 1023 30.21 852 25.16 3.3 38 74 -0.9 30.4
03:30 1023 30.21 852 25.16 3.1 37.6 76 -0.8 30.6
03:35 1023 30.21 852 25.16 3 37.5 75 -1 30.1
03:40 1023 30.21 852 25.16 3.1 37.6 75 -0.8 30.5
03:45 1023 30.21 852 25.16 3 37.4 76 -0.8 30.5
03:50 1023 30.21 852 25.16 3 37.4 74 -1.1 30
03:55 1023 30.21 852 25.16 3.2 37.7 73 -1.2 29.8
04:00 1023 30.21 852 25.16 3.2 37.8 74 -0.9 30.3
04:05 1023 30.21 852 25.16 3.1 37.6 75 -1 30.3
04:10 1023 30.21 852 25.16 3 37.5 75 -0.9 30.4
04:15 1023 30.21 852 25.16 2.9 37.1 75 -1.2 29.9
04:20 1023 30.21 852 25.16 2.7 36.8 78 -0.8 30.6
04:25 1023 30.21 852 25.16 2.4 36.3 79 -0.9 30.4
04:30 1023 30.21 852 25.16 2.2 35.9 80 -1 30.2
04:35 1023 30.21 852 25.16 2.4 36.2 77 -1.3 29.7
04:40 1023 30.21 852 25.16 2.4 36.3 77 -1.2 29.8
04:45 1023 30.21 852 25.16 2.2 36 78 -1.3 29.7
04:50 1023 30.21 852 25.16 2.1 35.8 78 -1.4 29.5
04:55 1023 30.21 852 25.16 2.1 35.8 77 -1.4 29.4
05:00 1023 30.21 852 25.16 2 35.7 78 -1.4 29.6
05:05 1023 30.21 852 25.16 1.9 35.5 77 -1.7 29
05:10 1023 30.21 852 25.16 2.1 35.7 76 -1.7 29
05:15 1023 30.21 852 25.16 2.1 35.7 79 -1.2 29.8
05:20 1023 30.21 852 25.16 1.5 34.8 83 -1 30.2
05:25 1023 30.21 852 25.16 1.3 34.4 82 -1.3 29.6
05:30 1023 30.21 852 25.16 1.5 34.6 82 -1.3 29.6
05:35 1023 30.21 852 25.16 1.4 34.6 83 -1.2 29.9
05:40 1023 30.21 852 25.16 1.5 34.7 82 -1.2 29.9
05:45 1023 30.21 852 25.16 1.5 34.6 82 -1.2 29.8
05:50 1023 30.21 852 25.16 1.2 34.1 84 -1.3 29.7
05:55 1023 30.21 852 25.16 1 33.8 83 -1.7 29
06:00 1023 30.21 852 25.16 1.1 34 82 -1.6 29
06:05 1023 30.21 852 25.16 1.2 34.2 81 -1.6 29
06:10 1023 30.21 852 25.16 1.2 34.2 81 -1.7 29
06:15 1023 30.21 852 25.16 1.1 34 83 -1.5 29.2
06:20 1023 30.21 853 25.19 1.1 33.9 82 -1.7 28.9
06:25 1023 30.21 853 25.19 1.2 34.1 83 -1.5 29.3
06:30 1023 30.21 853 25.19 1.2 34.1 81 -1.7 29
06:35 1023 30.21 853 25.19 1.3 34.4 81 -1.5 29.2
06:40 1023 30.21 853 25.19 1.5 34.7 80 -1.6 29.1
06:45 1023 30.21 853 25.19 1.4 34.5 82 -1.4 29.5
06:50 1023 30.21 853 25.19 1.1 34 82 -1.7 29
06:55 1023 30.21 853 25.19 1.3 34.3 81 -1.7 29
07:00 1023 30.21 853 25.19 1.4 34.6 80 -1.6 29.1
07:05 1023 30.21 853 25.19 1.7 35 78 -1.8 28.8
07:10 1024 30.24 853 25.19 2 35.7 77 -1.6 29.1
07:15 1024 30.24 853 25.19 2.1 35.7 77 -1.5 29.2
07:20 1024 30.24 853 25.19 2.6 36.6 74 -1.5 29.2
07:25 1024 30.24 853 25.19 3.1 37.6 72 -1.4 29.5
07:30 1024 30.24 853 25.19 3.5 38.3 71 -1.3 29.7
07:35 1024 30.24 853 25.19 3.9 39 69 -1.2 29.9
07:40 1024 30.24 853 25.19 4.4 39.9 67 -1.2 29.8
07:45 1024 30.24 853 25.19 4.5 40.1 69 -0.8 30.6
07:50 1024 30.24 853 25.19 5.1 41.2 64 -1.2 29.8
07:55 1024 30.24 853 25.19 5.6 42.2 60 -1.5 29.2
08:00 1024 30.24 853 25.19 6 42.7 57 -1.9 28.6
08:05 1024 30.24 853 25.19 6.2 43.1 58 -1.5 29.2
08:10 1024 30.24 853 25.19 6.2 43.1 61 -0.8 30.6
08:15 1024 30.24 853 25.19 6.4 43.6 57 -1.6 29.2
08:20 1024 30.24 853 25.19 6.7 44.1 59 -0.8 30.5
08:25 1024 30.24 853 25.19 6.6 43.8 58 -1.1 30.1
08:30 1024 30.24 853 25.19 6.3 43.3 61 -0.7 30.7
08:35 1024 30.24 853 25.19 6.7 44.1 54 -1.9 28.6
08:40 1024 30.24 853 25.19 7.2 45 52 -2 28.4
08:45 1024 30.24 853 25.19 7.5 45.6 49 -2.6 27.4
08:50 1024 30.24 853 25.19 7.5 45.5 50 -2.3 27.9
08:55 1024 30.24 853 25.19 6.4 43.5 55 -1.9 28.5
09:00 1024 30.24 853 25.19 6 42.7 55 -2.4 27.6
09:05 1024 30.24 853 25.19 6.3 43.3 55 -2.1 28.2
09:10 1024 30.24 853 25.19 6.6 43.9 52 -2.6 27.3
09:15 1024 30.24 853 25.19 6.7 44.1 52 -2.5 27.5
09:20 1024 30.24 853 25.19 6.3 43.4 52 -2.8 26.9
09:25 1024 30.24 853 25.19 7.1 44.7 51 -2.2 28
09:30 1024 30.24 853 25.19 7.1 44.8 52 -2.2 28.1
09:35 1024 30.24 853 25.19 7.6 45.7 46 -3.3 26.1
09:40 1024 30.24 853 25.19 7.6 45.6 49 -2.6 27.4
09:45 1024 30.24 853 25.19 7.4 45.2 47 -3.3 26.1
09:50 1024 30.24 853 25.19 8.4 47 45 -2.8 27
09:55 1024 30.24 853 25.19 9 48.2 40 -3.8 25.2
10:00 1024 30.24 853 25.19 9.1 48.4 43 -2.9 26.8
10:05 1024 30.24 853 25.19 8.7 47.6 44 -3 26.6
10:10 1024 30.24 853 25.19 9.2 48.6 41 -3.5 25.7
10:15 1024 30.24 853 25.19 9.4 48.9 41 -3.3 26.1
10:20 1024 30.24 853 25.19 8.8 47.9 41 -3.7 25.3
10:25 1024 30.24 853 25.19 9 48.3 38 -4.4 24
10:30 1024 30.24 853 25.19 9.4 48.8 38 -4.2 24.5
10:35 1024 30.24 853 25.19 9.1 48.4 41 -3.5 25.7
10:40 1024 30.24 853 25.19 8.4 47.2 39 -4.8 23.3
10:45 1024 30.24 853 25.19 8.6 47.4 42 -3.7 25.4
10:50 1024 30.24 853 25.19 9.2 48.5 37 -4.8 23.4
10:55 1024 30.24 853 25.19 10.5 51 34 -4.7 23.5
11:00 1024 30.24 853 25.19 9.8 49.6 39 -3.5 25.7
11:05 1024 30.24 853 25.19 8.7 47.7 39 -4.5 23.8
11:10 1024 30.24 853 25.19 8.5 47.3 39 -4.8 23.4
11:15 1024 30.24 853 25.19 8.8 47.9 37 -5.1 22.9
11:20 1024 30.24 853 25.19 9.2 48.6 36 -5.2 22.7
11:25 1024 30.24 853 25.19 9.6 49.3 37 -4.4 24.1
11:30 1024 30.24 853 25.19 10.3 50.6 35 -4.5 23.9
11:35 1024 30.24 853 25.19 11 51.9 32 -5 23
11:40 1024 30.24 853 25.19 11.2 52.1 32 -4.8 23.4
11:45 1024 30.24 853 25.19 10.9 51.7 31 -5.5 22.1
11:50 1024 30.24 853 25.19 10.1 50.1 32 -5.8 21.5
11:55 1023 30.21 853 25.19 10.6 51.1 33 -5.1 22.8
12:00 1023 30.21 853 25.19 11.1 51.9 32 -4.9 23.2
12:05 1023 30.21 853 25.19 10.6 51 31 -6 21.2
12:10 1023 30.21 853 25.19 11 51.8 29 -6.6 20.2
12:15 1023 30.21 852 25.16 11.1 51.9 28 -6.9 19.5
12:20 1023 30.21 852 25.16 11.7 53 27 -6.7 19.9
12:25 1023 30.21 852 25.16 11.7 53.1 27 -6.9 19.7
12:30 1023 30.21 852 25.16 11 51.7 28 -7 19.3
12:35 1023 30.21 852 25.16 10.6 51.1 34 -4.7 23.6
12:40 1023 30.21 852 25.16 9.9 49.7 33 -5.6 21.9
12:45 1023 30.21 852 25.16 11.2 52.2 30 -5.6 21.9
12:50 1023 30.21 852 25.16 11.4 52.6 28 -6.4 20.5
12:55 1023 30.21 852 25.16 11.4 52.4 28 -6.4 20.6
13:00 1023 30.21 852 25.16 10.8 51.4 29 -6.6 20.1
13:05 1023 30.21 852 25.16 10.9 51.6 30 -5.9 21.3
13:10 1023 30.21 852 25.16 10.9 51.5 31 -5.6 21.9
13:15 1023 30.21 852 25.16 10.4 50.8 30 -6.6 20.2
13:20 1023 30.21 852 25.16 12.4 54.2 28 -5.8 21.5
13:25 1023 30.21 852 25.16 11.8 53.2 30 -5.2 22.7
13:30 1023 30.21 852 25.16 12.3 54.1 27 -6.3 20.7
13:35 1023 30.21 852 25.16 12.7 54.8 27 -5.9 21.4
13:40 1023 30.21 852 25.16 12.9 55.2 26 -5.9 21.4
13:45 1023 30.21 852 25.16 12.4 54.3 28 -5.7 21.7
13:50 1022 30.18 852 25.16 11.5 52.7 28 -6.4 20.4
13:55 1022 30.18 852 25.16 12.2 54 26 -6.5 20.3
14:00 1022 30.18 852 25.16 12.9 55.3 26 -6.2 20.8
14:05 1022 30.18 852 25.16 13.5 56.2 25 -5.9 21.3
14:10 1022 30.18 851 25.13 13.6 56.4 24 -6.6 20.1
14:15 1022 30.18 851 25.13 13.5 56.4 25 -5.8 21.5
14:20 1022 30.18 851 25.13 13.1 55.5 26 -5.9 21.4
14:25 1022 30.18 851 25.13 12.8 55 25 -6.5 20.3
14:30 1022 30.18 851 25.13 13 55.4 23 -7.4 18.7
14:35 1022 30.18 851 25.13 13.3 56 24 -7 19.5
14:40 1022 30.18 851 25.13 13.2 55.8 23 -7.6 18.3
14:45 1022 30.18 851 25.13 12.5 54.4 24 -7.4 18.6
14:50 1022 30.18 851 25.13 12.1 53.8 23 -8.4 16.9
14:55 1022 30.18 851 25.13 11.7 53.1 24 -8 17.6
15:00 1022 30.18 851 25.13 11.6 52.9 23 -8.9 15.9
15:05 1022 30.18 851 25.13 11.9 53.3 21 -9.6 14.7
15:10 1022 30.18 851 25.13 13.3 56 20 -9.3 15.3
15:15 1022 30.18 851 25.13 13.2 55.8 19 -10 14
15:20 1022 30.18 851 25.13 13 55.5 18 -10.7 12.8
15:25 1022 30.18 851 25.13 13 55.3 19 -10.4 13.3
15:30 1022 30.18 851 25.13 13.2 55.8 19 -9.8 14.4
15:35 1022 30.18 851 25.13 12.5 54.4 19 -10.3 13.4
15:40 1022 30.18 851 25.13 12.8 55 18 -11 12.1
15:45 1022 30.18 851 25.13 12.8 55 17 -11.8 10.7
15:50 1022 30.18 851 25.13 13.8 56.9 16 -11.2 11.8
15:55 1022 30.18 851 25.13 13.8 56.8 17 -10.7 12.7
16:00 1022 30.18 851 25.13 13.3 55.9 19 -10.2 13.7
16:05 1021 30.15 851 25.13 13 55.4 17 -11.2 11.8
16:10 1021 30.15 851 25.13 13.4 56.2 14 -13.5 7.7
16:15 1021 30.15 851 25.13 13.6 56.6 16 -11.4 11.4
16:20 1021 30.15 851 25.13 13.6 56.6 17 -10.8 12.5
16:25 1021 30.15 851 25.13 13.6 56.5 15 -12.4 9.8
16:30 1021 30.15 851 25.13 13.7 56.6 15 -12.7 9.2
16:35 1021 30.15 851 25.13 13.5 56.4 15 -12.6 9.4
16:40 1021 30.15 851 25.13 13.8 56.9 15 -12.5 9.4
16:45 1021 30.15 851 25.13 14.2 57.6 17 -10.3 13.5
16:50 1021 30.15 851 25.13 14 57.3 18 -10.2 13.6
16:55 1021 30.15 851 25.13 13.9 57 18 -10.1 13.8
17:00 1021 30.15 851 25.13 13.2 55.8 19 -10.2 13.6
17:05 1021 30.15 851 25.13 14.1 57.3 19 -9.1 15.6
17:10 1021 30.15 851 25.13 13.8 56.9 19 -9.6 14.7
17:15 1021 30.15 850 25.1 13.9 57 18 -9.8 14.3
17:20 1021 30.15 851 25.13 14.5 58.1 18 -9.5 14.9
17:25 1021 30.15 851 25.13 14.3 57.8 18 -9.9 14.2
17:30 1021 30.15 851 25.13 13.3 56 19 -9.7 14.5
17:35 1021 30.15 850 25.1 12.1 53.8 19 -10.7 12.8
17:40 1021 30.15 850 25.1 12.6 54.7 18 -10.9 12.3
17:45 1021 30.15 850 25.1 13.3 56 18 -10.4 13.2
17:50 1021 30.15 850 25.1 13 55.4 18 -10.5 13.1
17:55 1021 30.15 850 25.1 13.3 56 18 -10.4 13.4
18:00 1021 30.15 850 25.1 12.7 54.8 20 -9.4 15
18:05 1021 30.15 850 25.1 12.2 54 20 -9.8 14.3
18:10 1021 30.15 850 25.1 12.4 54.3 20 -10.1 13.9
18:15 1021 30.15 850 25.1 12.6 54.7 20 -10.1 13.9
18:20 1021 30.15 850 25.1 12.9 55.3 18 -10.5 13
18:25 1021 30.15 850 25.1 12.3 54.2 19 -10.7 12.7
18:30 1021 30.15 850 25.1 12 53.6 19 -11 12.3
18:35 1021 30.15 850 25.1 12.1 53.8 19 -10.7 12.8
18:40 1021 30.15 850 25.1 12.9 55.2 17 -11.3 11.6
18:45 1021 30.15 850 25.1 13.6 56.4 18 -10.6 12.9
18:50 1021 30.15 850 25.1 13.6 56.4 17 -11 12.2
18:55 1021 30.15 850 25.1 13.6 56.5 17 -10.9 12.3
19:00 1021 30.15 850 25.1 13 55.5 18 -10.4 13.2
19:05 1021 30.15 850 25.1 12.8 55 18 -10.7 12.7
19:10 1021 30.15 850 25.1 12.5 54.5 18 -11 12.1
19:15 1021 30.15 850 25.1 12.1 53.8 19 -11.1 12
19:20 1021 30.15 850 25.1 12.2 53.9 17 -11.8 10.7
19:25 1021 30.15 850 25.1 11.8 53.2 19 -11.4 11.4
19:30 1021 30.15 850 25.1 11.6 52.8 20 -10.8 12.6
19:35 1021 30.15 850 25.1 12 53.6 20 -10.4 13.2
19:40 1021 30.15 850 25.1 12 53.7 19 -11 12.3
19:45 1021 30.15 850 25.1 11.7 53 19 -11.2 11.9
19:50 1021 30.15 850 25.1 11.5 52.6 20 -10.6 12.9
19:55 1021 30.15 850 25.1 11.6 52.8 18 -11.7 11
20:00 1021 30.15 850 25.1 11.5 52.7 20 -11 12.1
20:05 1021 30.15 850 25.1 11.3 52.4 20 -10.9 12.4
20:10 1021 30.15 850 25.1 11.3 52.4 20 -11 12.1
20:15 1021 30.15 850 25.1 11.3 52.3 20 -11 12.1
20:20 1021 30.15 850 25.1 11.4 52.5 20 -10.6 12.9
20:25 1021 30.15 850 25.1 11.1 52 20 -11.1 12.1
20:30 1021 30.15 850 25.1 11 51.8 21 -10.8 12.5
20:35 1021 30.15 850 25.1 10.8 51.4 21 -10.4 13.2
20:40 1021 30.15 850 25.1 10.6 51.1 22 -10.1 13.9
20:45 1021 30.15 850 25.1 10.6 51.1 21 -10.6 12.9
20:50 1021 30.15 850 25.1 10.7 51.3 20 -11.1 12
20:55 1021 30.15 850 25.1 10.7 51.2 20 -11.4 11.4
21:00 1021 30.15 850 25.1 10.6 51.1 20 -11.4 11.6
21:05 1021 30.15 850 25.1 10.7 51.2 20 -11.3 11.7
21:10 1021 30.15 851 25.13 10.3 50.6 31 -6.2 20.8
21:15 1021 30.15 851 25.13 9 48.2 35 -5.6 22
21:20 1021 30.15 851 25.13 8.1 46.7 39 -4.9 23.3
21:25 1022 30.18 851 25.13 7.4 45.4 41 -4.9 23.1
21:30 1022 30.18 851 25.13 7 44.5 44 -4.3 24.2
21:35 1022 30.18 851 25.13 6.5 43.8 41 -5.7 21.8
21:40 1022 30.18 851 25.13 6.4 43.5 43 -5.2 22.6
21:45 1022 30.18 851 25.13 6.4 43.6 39 -6.4 20.4
21:50 1022 30.18 851 25.13 6.2 43.2 40 -6.3 20.6
21:55 1022 30.18 851 25.13 6.1 42.9 43 -5.6 21.8
22:00 1022 30.18 851 25.13 5.8 42.4 40 -6.7 19.9
22:05 1022 30.18 851 25.13 6.1 43.1 39 -6.7 19.9
22:10 1022 30.18 851 25.13 6.6 43.9 42 -5.3 22.4
22:15 1022 30.18 851 25.13 6.8 44.3 43 -4.9 23.1
22:20 1022 30.18 851 25.13 6.9 44.4 46 -3.9 25
22:25 1022 30.18 851 25.13 7 44.5 50 -2.7 27.1
22:30 1022 30.18 851 25.13 7 44.5 52 -2.2 28
22:35 1022 30.18 851 25.13 7 44.5 53 -2.1 28.3
22:40 1022 30.18 851 25.13 7 44.6 54 -1.6 29.1
22:45 1022 30.18 851 25.13 6.9 44.4 55 -1.4 29.5
22:50 1022 30.18 851 25.13 6.7 44.1 55 -1.6 29.1
22:55 1022 30.18 851 25.13 6.7 44.1 56 -1.5 29.2
23:00 1022 30.18 851 25.13 6.7 44.1 56 -1.5 29.4
23:05 1022 30.18 851 25.13 6.7 44.1 56 -1.5 29.4
23:10 1022 30.18 851 25.13 6.7 44.1 56 -1.5 29.4
23:15 1022 30.18 851 25.13 6.7 44.1 56 -1.3 29.6
23:20 1022 30.18 851 25.13 6.7 44 57 -1.2 29.8
23:25 1022 30.18 851 25.13 6.6 43.9 58 -1 30.1
23:30 1022 30.18 851 25.13 6.5 43.8 59 -1 30.3
23:35 1022 30.18 851 25.13 6.5 43.6 59 -0.9 30.4
23:40 1022 30.18 851 25.13 6.4 43.5 60 -0.8 30.5
23:45 1022 30.18 851 25.13 6.4 43.5 59 -1 30.1
23:50 1022 30.18 851 25.13 6.4 43.5 60 -0.8 30.5
23:55 1022 30.18 851 25.13 6.3 43.4 60 -0.8 30.5
24:00 1022 30.18 851 25.13 6.3 43.3 60 -0.8 30.6